createdAt,value
2018-06-14T00:00:01.276Z,8.00
2018-06-14T00:01:01.280Z,8.00
2018-06-14T00:02:01.298Z,8.00
2018-06-14T00:03:01.287Z,8.00
2018-06-14T00:04:01.280Z,8.00
2018-06-14T00:05:01.281Z,8.00
2018-06-14T00:06:01.286Z,8.00
2018-06-14T00:07:01.282Z,8.00
2018-06-14T00:08:01.282Z,8.00
2018-06-14T00:09:01.283Z,8.00
2018-06-14T00:10:01.284Z,8.00
2018-06-14T00:11:01.291Z,8.00
2018-06-14T00:12:01.285Z,8.00
2018-06-14T00:13:01.286Z,8.00
2018-06-14T00:14:01.293Z,8.00
2018-06-14T00:15:01.288Z,8.00
2018-06-14T00:16:01.294Z,8.00
2018-06-14T00:17:01.289Z,8.00
2018-06-14T00:18:01.290Z,8.00
2018-06-14T00:19:01.294Z,8.00
2018-06-14T00:20:01.296Z,8.00
2018-06-14T00:21:01.292Z,8.00
2018-06-14T00:22:01.294Z,8.00
2018-06-14T00:23:01.293Z,8.00
2018-06-14T00:24:01.293Z,8.00
2018-06-14T00:25:01.294Z,8.00
2018-06-14T00:26:01.308Z,8.00
2018-06-14T00:27:01.300Z,8.00
2018-06-14T00:28:01.297Z,8.00
2018-06-14T00:29:01.300Z,8.00
2018-06-14T00:30:01.299Z,8.00
2018-06-14T00:31:01.304Z,4.00
2018-06-14T00:32:01.301Z,4.00
2018-06-14T00:33:01.300Z,4.00
2018-06-14T00:34:01.304Z,4.00
2018-06-14T00:35:01.314Z,4.00
2018-06-14T00:36:01.302Z,4.00
2018-06-14T00:37:01.305Z,4.00
2018-06-14T00:38:01.305Z,4.00
2018-06-14T00:39:01.305Z,4.00
2018-06-14T00:40:01.305Z,4.00
2018-06-14T00:41:01.309Z,4.00
2018-06-14T00:42:01.308Z,4.00
2018-06-14T00:43:01.312Z,4.00
2018-06-14T00:44:01.311Z,4.00
2018-06-14T00:45:01.319Z,4.00
2018-06-14T00:46:01.313Z,4.00
2018-06-14T00:47:01.312Z,4.00
2018-06-14T00:48:01.316Z,4.00
2018-06-14T00:49:01.314Z,4.00
2018-06-14T00:50:01.317Z,4.00
2018-06-14T00:51:01.318Z,4.00
2018-06-14T00:52:01.315Z,4.00
2018-06-14T00:53:01.319Z,4.00
2018-06-14T00:54:01.323Z,4.00
2018-06-14T00:55:01.320Z,4.00
2018-06-14T00:56:01.316Z,4.00
2018-06-14T00:57:01.318Z,4.00
2018-06-14T00:58:01.318Z,4.00
2018-06-14T00:59:01.326Z,4.00
2018-06-14T01:00:02.061Z,4.00
2018-06-14T01:01:01.321Z,4.00
2018-06-14T01:02:01.320Z,4.00
2018-06-14T01:03:01.323Z,4.00
2018-06-14T01:04:01.324Z,4.00
2018-06-14T01:05:01.324Z,4.00
2018-06-14T01:06:01.325Z,4.00
2018-06-14T01:07:01.370Z,4.00
2018-06-14T01:08:01.328Z,4.00
2018-06-14T01:09:01.326Z,4.00
2018-06-14T01:10:01.326Z,4.00
2018-06-14T01:11:01.335Z,4.00
2018-06-14T01:12:01.329Z,4.00
2018-06-14T01:13:01.331Z,4.00
2018-06-14T01:14:01.339Z,4.00
2018-06-14T01:15:01.336Z,4.00
2018-06-14T01:16:02.072Z,4.00
2018-06-14T01:17:01.335Z,4.00
2018-06-14T01:18:01.332Z,4.00
2018-06-14T01:19:01.333Z,4.00
2018-06-14T01:20:01.337Z,4.00
2018-06-14T01:21:01.338Z,4.00
2018-06-14T01:22:01.337Z,4.00
2018-06-14T01:23:01.337Z,4.00
2018-06-14T01:24:01.342Z,4.00
2018-06-14T01:25:01.338Z,4.00
2018-06-14T01:26:01.338Z,4.00
2018-06-14T01:27:01.339Z,4.00
2018-06-14T01:28:01.340Z,4.00
2018-06-14T01:29:01.340Z,4.00
2018-06-14T01:30:01.343Z,4.00
2018-06-14T01:31:01.344Z,4.00
2018-06-14T01:32:02.077Z,4.00
2018-06-14T01:33:01.342Z,4.00
2018-06-14T01:34:01.342Z,4.00
2018-06-14T01:35:01.347Z,4.00
2018-06-14T01:36:01.344Z,4.00
2018-06-14T01:37:01.348Z,4.00
2018-06-14T01:38:01.346Z,4.00
2018-06-14T01:39:01.350Z,4.00
2018-06-14T01:40:01.349Z,4.00
2018-06-14T01:41:01.348Z,4.00
2018-06-14T01:42:01.349Z,4.00
2018-06-14T01:43:01.349Z,4.00
2018-06-14T01:44:01.352Z,4.00
2018-06-14T01:45:01.351Z,4.00
2018-06-14T01:46:01.351Z,4.00
2018-06-14T01:47:01.359Z,4.00
2018-06-14T01:48:01.353Z,4.00
2018-06-14T01:49:01.357Z,4.00
2018-06-14T01:50:01.353Z,4.00
2018-06-14T01:51:01.355Z,4.00
2018-06-14T01:52:01.362Z,4.00
2018-06-14T01:53:01.390Z,8.00
2018-06-14T01:54:01.365Z,4.00
2018-06-14T01:55:01.362Z,4.00
2018-06-14T01:56:01.361Z,4.00
2018-06-14T01:57:01.362Z,4.00
2018-06-14T01:58:01.364Z,4.00
2018-06-14T01:59:01.360Z,8.00
2018-06-14T02:00:01.365Z,4.00
2018-06-14T02:01:01.363Z,4.00
2018-06-14T02:02:01.364Z,4.00
2018-06-14T02:03:01.363Z,4.00
2018-06-14T02:04:01.367Z,4.00
2018-06-14T02:05:02.083Z,4.00
2018-06-14T02:06:01.366Z,8.00
2018-06-14T02:07:01.365Z,8.00
2018-06-14T02:08:01.366Z,4.00
2018-06-14T02:09:01.371Z,8.00
2018-06-14T02:10:01.369Z,8.00
2018-06-14T02:11:01.370Z,8.00
2018-06-14T02:12:01.369Z,8.00
2018-06-14T02:13:01.379Z,8.00
2018-06-14T02:14:01.371Z,8.00
2018-06-14T02:15:01.377Z,8.00
2018-06-14T02:16:01.369Z,8.00
2018-06-14T02:17:01.376Z,8.00
2018-06-14T02:18:01.373Z,8.00
2018-06-14T02:19:01.375Z,8.00
2018-06-14T02:20:01.375Z,8.00
2018-06-14T02:21:02.089Z,8.00
2018-06-14T02:22:01.375Z,8.00
2018-06-14T02:23:01.376Z,8.00
2018-06-14T02:24:01.376Z,8.00
2018-06-14T02:25:01.378Z,8.00
2018-06-14T02:26:01.381Z,8.00
2018-06-14T02:27:01.379Z,4.00
2018-06-14T02:28:01.382Z,4.00
2018-06-14T02:29:01.383Z,8.00
2018-06-14T02:30:01.383Z,8.00
2018-06-14T02:31:01.390Z,8.00
2018-06-14T02:32:01.382Z,8.00
2018-06-14T02:33:01.383Z,8.00
2018-06-14T02:34:01.404Z,8.00
2018-06-14T02:35:01.388Z,8.00
2018-06-14T02:36:01.386Z,8.00
2018-06-14T02:37:02.094Z,8.00
2018-06-14T02:38:01.390Z,8.00
2018-06-14T02:39:01.394Z,8.00
2018-06-14T02:40:01.391Z,12.00
2018-06-14T02:41:01.389Z,8.00
2018-06-14T02:42:01.388Z,8.00
2018-06-14T02:43:01.389Z,12.00
2018-06-14T02:44:01.390Z,8.00
2018-06-14T02:45:01.389Z,12.00
2018-06-14T02:46:01.399Z,12.00
2018-06-14T02:47:01.392Z,8.00
2018-06-14T02:48:01.390Z,8.00
2018-06-14T02:49:01.391Z,8.00
2018-06-14T02:50:01.394Z,12.00
2018-06-14T02:51:01.398Z,12.00
2018-06-14T02:52:01.394Z,12.00
2018-06-14T02:53:02.102Z,12.00
2018-06-14T02:54:01.396Z,16.00
2018-06-14T02:55:01.399Z,16.00
2018-06-14T02:56:01.396Z,20.00
2018-06-14T02:57:01.401Z,20.00
2018-06-14T02:58:01.398Z,20.00
2018-06-14T02:59:01.400Z,24.00
2018-06-14T03:00:01.405Z,24.00
2018-06-14T03:01:01.399Z,24.00
2018-06-14T03:02:01.403Z,28.00
2018-06-14T03:03:01.405Z,28.00
2018-06-14T03:04:01.401Z,28.00
2018-06-14T03:05:01.401Z,32.00
2018-06-14T03:06:01.403Z,32.00
2018-06-14T03:07:01.409Z,32.00
2018-06-14T03:08:01.411Z,36.00
2018-06-14T03:09:01.404Z,40.00
2018-06-14T03:10:01.407Z,44.00
2018-06-14T03:11:01.406Z,44.00
2018-06-14T03:12:01.406Z,48.00
2018-06-14T03:13:01.411Z,52.00
2018-06-14T03:14:01.408Z,56.00
2018-06-14T03:15:01.407Z,64.00
2018-06-14T03:16:01.411Z,64.00
2018-06-14T03:17:01.412Z,72.00
2018-06-14T03:18:01.409Z,68.00
2018-06-14T03:19:01.412Z,72.00
2018-06-14T03:20:01.415Z,76.00
2018-06-14T03:21:01.414Z,80.00
2018-06-14T03:22:01.426Z,80.00
2018-06-14T03:23:01.414Z,88.00
2018-06-14T03:24:01.416Z,88.00
2018-06-14T03:25:02.112Z,92.00
2018-06-14T03:26:01.415Z,96.00
2018-06-14T03:27:01.416Z,96.00
2018-06-14T03:28:01.415Z,104.00
2018-06-14T03:29:01.417Z,104.00
2018-06-14T03:30:01.416Z,108.00
2018-06-14T03:31:01.419Z,116.00
2018-06-14T03:32:01.428Z,120.00
2018-06-14T03:33:01.418Z,124.00
2018-06-14T03:34:01.419Z,124.00
2018-06-14T03:35:01.423Z,132.00
2018-06-14T03:36:01.423Z,132.00
2018-06-14T03:37:01.424Z,140.00
2018-06-14T03:38:01.420Z,144.00
2018-06-14T03:39:01.420Z,148.00
2018-06-14T03:40:01.426Z,152.00
2018-06-14T03:41:02.116Z,160.00
2018-06-14T03:42:01.425Z,168.00
2018-06-14T03:43:01.425Z,172.00
2018-06-14T03:44:01.423Z,180.00
2018-06-14T03:45:01.425Z,188.00
2018-06-14T03:46:01.426Z,192.00
2018-06-14T03:47:01.436Z,204.00
2018-06-14T03:48:01.426Z,208.00
2018-06-14T03:49:01.428Z,212.00
2018-06-14T03:50:01.430Z,224.00
2018-06-14T03:51:01.431Z,232.00
2018-06-14T03:52:01.468Z,236.00
2018-06-14T03:53:01.436Z,244.00
2018-06-14T03:54:01.430Z,244.00
2018-06-14T03:55:01.436Z,248.00
2018-06-14T03:56:01.432Z,252.00
2018-06-14T03:57:02.115Z,260.00
2018-06-14T03:58:01.431Z,268.00
2018-06-14T03:59:01.438Z,280.00
2018-06-14T04:00:01.444Z,288.00
2018-06-14T04:01:01.433Z,292.00
2018-06-14T04:02:01.434Z,300.00
2018-06-14T04:03:01.435Z,304.00
2018-06-14T04:04:01.499Z,316.00
2018-06-14T04:05:01.437Z,324.00
2018-06-14T04:06:01.437Z,336.00
2018-06-14T04:07:01.439Z,340.00
2018-06-14T04:08:01.437Z,348.00
2018-06-14T04:09:01.438Z,360.00
2018-06-14T04:10:01.473Z,364.00
2018-06-14T04:11:01.441Z,376.00
2018-06-14T04:12:01.443Z,388.00
2018-06-14T04:13:02.117Z,396.00
2018-06-14T04:14:01.448Z,404.00
2018-06-14T04:15:01.443Z,408.00
2018-06-14T04:16:01.444Z,416.00
2018-06-14T04:17:01.443Z,432.00
2018-06-14T04:18:01.447Z,440.00
2018-06-14T04:19:01.447Z,460.00
2018-06-14T04:20:01.447Z,476.00
2018-06-14T04:21:01.448Z,488.00
2018-06-14T04:22:01.450Z,500.00
2018-06-14T04:23:01.451Z,508.00
2018-06-14T04:24:01.451Z,512.00
2018-06-14T04:25:01.450Z,512.00
2018-06-14T04:26:01.455Z,512.00
2018-06-14T04:27:01.452Z,516.00
2018-06-14T04:28:01.451Z,516.00
2018-06-14T04:29:01.452Z,516.00
2018-06-14T04:30:01.456Z,520.00
2018-06-14T04:31:01.454Z,524.00
2018-06-14T04:32:01.458Z,528.00
2018-06-14T04:33:01.457Z,532.00
2018-06-14T04:34:01.456Z,540.00
2018-06-14T04:35:01.456Z,540.00
2018-06-14T04:36:01.458Z,544.00
2018-06-14T04:37:01.466Z,548.00
2018-06-14T04:38:01.460Z,552.00
2018-06-14T04:39:01.459Z,564.00
2018-06-14T04:40:01.460Z,580.00
2018-06-14T04:41:01.461Z,604.00
2018-06-14T04:42:01.463Z,620.00
2018-06-14T04:43:01.464Z,632.00
2018-06-14T04:44:01.466Z,656.00
2018-06-14T04:45:01.464Z,672.00
2018-06-14T04:46:01.464Z,692.00
2018-06-14T04:47:01.466Z,724.00
2018-06-14T04:48:01.466Z,744.00
2018-06-14T04:49:01.467Z,764.00
2018-06-14T04:50:01.470Z,788.00
2018-06-14T04:51:01.469Z,812.00
2018-06-14T04:52:01.471Z,832.00
2018-06-14T04:53:01.472Z,868.00
2018-06-14T04:54:01.478Z,852.00
2018-06-14T04:55:01.478Z,856.00
2018-06-14T04:56:01.474Z,864.00
2018-06-14T04:57:01.483Z,884.00
2018-06-14T04:58:01.475Z,868.00
2018-06-14T04:59:01.476Z,872.00
2018-06-14T05:00:01.479Z,876.00
2018-06-14T05:01:01.479Z,880.00
2018-06-14T05:02:01.480Z,892.00
2018-06-14T05:03:01.479Z,904.00
2018-06-14T05:04:01.480Z,912.00
2018-06-14T05:05:01.480Z,928.00
2018-06-14T05:06:01.482Z,944.00
2018-06-14T05:07:01.484Z,996.00
2018-06-14T05:08:01.484Z,972.00
2018-06-14T05:09:01.489Z,980.00
2018-06-14T05:10:02.160Z,984.00
2018-06-14T05:11:01.488Z,1012.00
2018-06-14T05:12:01.486Z,1000.00
2018-06-14T05:13:01.504Z,1020.00
2018-06-14T05:14:01.489Z,1044.00
2018-06-14T05:15:01.493Z,1060.00
2018-06-14T05:16:01.493Z,1072.00
2018-06-14T05:17:01.492Z,1068.00
2018-06-14T05:18:01.565Z,1052.00
2018-06-14T05:19:01.501Z,1036.00
2018-06-14T05:20:01.498Z,1024.00
2018-06-14T05:21:01.493Z,1016.00
2018-06-14T05:22:01.498Z,1016.00
2018-06-14T05:23:01.500Z,1012.00
2018-06-14T05:24:01.499Z,1016.00
2018-06-14T05:25:01.500Z,1016.00
2018-06-14T05:26:02.131Z,1016.00
2018-06-14T05:27:01.502Z,1020.00
2018-06-14T05:28:01.502Z,1028.00
2018-06-14T05:29:01.503Z,1036.00
2018-06-14T05:30:01.505Z,1048.00
2018-06-14T05:31:01.505Z,1060.00
2018-06-14T05:32:01.517Z,1072.00
2018-06-14T05:33:01.513Z,1080.00
2018-06-14T05:34:01.510Z,1084.00
2018-06-14T05:35:01.511Z,1092.00
2018-06-14T05:36:01.516Z,1104.00
2018-06-14T05:37:01.516Z,1124.00
2018-06-14T05:38:01.513Z,1140.00
2018-06-14T05:39:01.515Z,1156.00
2018-06-14T05:40:01.522Z,1220.00
2018-06-14T05:41:01.518Z,1220.00
2018-06-14T05:42:02.140Z,1220.00
2018-06-14T05:43:01.519Z,1224.00
2018-06-14T05:44:01.522Z,1248.00
2018-06-14T05:45:01.528Z,1260.00
2018-06-14T05:46:01.523Z,1296.00
2018-06-14T05:47:01.525Z,1328.00
2018-06-14T05:48:01.529Z,1364.00
2018-06-14T05:49:01.534Z,1392.00
2018-06-14T05:50:01.531Z,1428.00
2018-06-14T05:51:01.529Z,1476.00
2018-06-14T05:52:01.529Z,1528.00
2018-06-14T05:53:01.532Z,1592.00
2018-06-14T05:54:01.535Z,1668.00
2018-06-14T05:55:01.534Z,1744.00
2018-06-14T05:56:01.549Z,1812.00
2018-06-14T05:57:01.540Z,1876.00
2018-06-14T05:58:02.143Z,1932.00
2018-06-14T05:59:01.538Z,1880.00
2018-06-14T06:00:01.541Z,1936.00
2018-06-14T06:01:01.542Z,1972.00
2018-06-14T06:02:01.545Z,2016.00
2018-06-14T06:03:01.547Z,2104.00
2018-06-14T06:04:01.548Z,2092.00
2018-06-14T06:05:01.549Z,2116.00
2018-06-14T06:06:01.550Z,2136.00
2018-06-14T06:07:01.551Z,2160.00
2018-06-14T06:08:01.554Z,2280.00
2018-06-14T06:09:01.556Z,2304.00
2018-06-14T06:10:01.554Z,2380.00
2018-06-14T06:11:01.563Z,2428.00
2018-06-14T06:12:01.609Z,2372.00
2018-06-14T06:13:01.560Z,2396.00
2018-06-14T06:14:01.561Z,2416.00
2018-06-14T06:15:01.570Z,2440.00
2018-06-14T06:16:01.563Z,2480.00
2018-06-14T06:17:01.566Z,2532.00
2018-06-14T06:18:01.569Z,2596.00
2018-06-14T06:19:01.568Z,2664.00
2018-06-14T06:20:01.574Z,2724.00
2018-06-14T06:21:01.580Z,2780.00
2018-06-14T06:22:01.588Z,2816.00
2018-06-14T06:23:02.141Z,2844.00
2018-06-14T06:24:01.578Z,2864.00
2018-06-14T06:25:01.580Z,2872.00
2018-06-14T06:26:01.595Z,2904.00
2018-06-14T06:27:01.586Z,2976.00
2018-06-14T06:28:01.583Z,3052.00
2018-06-14T06:29:01.812Z,3140.00
2018-06-14T06:30:02.972Z,3284.00
2018-06-14T06:31:01.762Z,3348.00
2018-06-14T06:32:01.624Z,3444.00
2018-06-14T06:33:01.592Z,3548.00
2018-06-14T06:34:01.600Z,3640.00
2018-06-14T06:35:01.599Z,3728.00
2018-06-14T06:36:01.601Z,3792.00
2018-06-14T06:37:01.763Z,3804.00
2018-06-14T06:38:02.403Z,3800.00
2018-06-14T06:39:01.641Z,3736.00
2018-06-14T06:40:01.608Z,3624.00
2018-06-14T06:41:02.162Z,3520.00
2018-06-14T06:42:01.612Z,3404.00
2018-06-14T06:43:01.615Z,3328.00
2018-06-14T06:44:01.615Z,3320.00
2018-06-14T06:45:01.664Z,3352.00
2018-06-14T06:46:01.620Z,3400.00
2018-06-14T06:47:01.623Z,3504.00
2018-06-14T06:48:01.625Z,3552.00
2018-06-14T06:49:01.627Z,3592.00
2018-06-14T06:50:01.631Z,3620.00
2018-06-14T06:51:01.631Z,3644.00
2018-06-14T06:52:01.632Z,3696.00
2018-06-14T06:53:01.664Z,3764.00
2018-06-14T06:54:01.649Z,3848.00
2018-06-14T06:55:01.643Z,3928.00
2018-06-14T06:56:01.643Z,3980.00
2018-06-14T06:57:01.648Z,3956.00
2018-06-14T06:58:01.648Z,3924.00
2018-06-14T06:59:02.466Z,3916.00
2018-06-14T07:00:01.661Z,3932.00
2018-06-14T07:01:01.654Z,3992.00
2018-06-14T07:02:01.677Z,4048.00
2018-06-14T07:03:01.683Z,4048.00
2018-06-14T07:04:01.666Z,4072.00
2018-06-14T07:05:01.665Z,4076.00
2018-06-14T07:06:02.715Z,4076.00
2018-06-14T07:07:01.673Z,4072.00
2018-06-14T07:08:01.672Z,4076.00
2018-06-14T07:09:01.676Z,4092.00
2018-06-14T07:10:01.683Z,4008.00
2018-06-14T07:11:01.688Z,3960.00
2018-06-14T07:12:01.748Z,3916.00
2018-06-14T07:13:01.692Z,3908.00
2018-06-14T07:14:01.688Z,3940.00
2018-06-14T07:15:01.692Z,3956.00
2018-06-14T07:16:02.295Z,3992.00
2018-06-14T07:17:01.696Z,4016.00
2018-06-14T07:18:01.699Z,3996.00
2018-06-14T07:19:01.705Z,3968.00
2018-06-14T07:20:01.707Z,3976.00
2018-06-14T07:21:02.254Z,4012.00
2018-06-14T07:22:01.724Z,3996.00
2018-06-14T07:23:01.716Z,3980.00
2018-06-14T07:24:01.719Z,3968.00
2018-06-14T07:25:01.937Z,3968.00
2018-06-14T07:26:01.721Z,3972.00
2018-06-14T07:27:01.728Z,3960.00
2018-06-14T07:28:01.731Z,3916.00
2018-06-14T07:29:01.733Z,3876.00
2018-06-14T07:30:01.743Z,3888.00
2018-06-14T07:31:02.674Z,3956.00
2018-06-14T07:32:01.741Z,4004.00
2018-06-14T07:33:01.756Z,4048.00
2018-06-14T07:34:01.747Z,4060.00
2018-06-14T07:35:01.780Z,4084.00
2018-06-14T07:36:01.750Z,4168.00
2018-06-14T07:37:01.753Z,4064.00
2018-06-14T07:38:01.755Z,4076.00
2018-06-14T07:39:01.796Z,4116.00
2018-06-14T07:40:01.762Z,4076.00
2018-06-14T07:41:01.764Z,4036.00
2018-06-14T07:42:01.769Z,4044.00
2018-06-14T07:43:01.794Z,4156.00
2018-06-14T07:44:01.780Z,4164.00
2018-06-14T07:45:01.776Z,4112.00
2018-06-14T07:46:01.795Z,3992.00
2018-06-14T07:47:01.782Z,3908.00
2018-06-14T07:48:01.788Z,3852.00
2018-06-14T07:49:01.783Z,3860.00
2018-06-14T07:50:01.790Z,3960.00
2018-06-14T07:51:01.797Z,4032.00
2018-06-14T07:52:01.796Z,4044.00
2018-06-14T07:53:01.799Z,4064.00
2018-06-14T07:54:01.801Z,4128.00
2018-06-14T07:55:01.804Z,4280.00
2018-06-14T07:56:01.806Z,4404.00
2018-06-14T07:57:01.812Z,4468.00
2018-06-14T07:58:01.813Z,4524.00
2018-06-14T07:59:01.814Z,4504.00
2018-06-14T08:00:01.853Z,4480.00
2018-06-14T08:01:01.887Z,4372.00
2018-06-14T08:02:01.850Z,4268.00
2018-06-14T08:03:01.833Z,4388.00
2018-06-14T08:04:02.018Z,4296.00
2018-06-14T08:05:02.011Z,4124.00
2018-06-14T08:06:01.864Z,3832.00
2018-06-14T08:07:02.093Z,3692.00
2018-06-14T08:08:02.764Z,3580.00
2018-06-14T08:09:01.850Z,3456.00
2018-06-14T08:10:01.851Z,3404.00
2018-06-14T08:11:01.890Z,3268.00
2018-06-14T08:12:02.124Z,3100.00
2018-06-14T08:13:01.856Z,3024.00
2018-06-14T08:15:02.052Z,2880.00
2018-06-14T08:16:01.864Z,2632.00
2018-06-14T08:17:01.869Z,2540.00
2018-06-14T08:18:01.894Z,2452.00
2018-06-14T08:19:01.876Z,2364.00
2018-06-14T08:20:01.877Z,2272.00
2018-06-14T08:21:02.773Z,2236.00
2018-06-14T08:22:01.891Z,2228.00
2018-06-14T08:23:01.887Z,2248.00
2018-06-14T08:24:02.090Z,2236.00
2018-06-14T08:25:03.069Z,2240.00
2018-06-14T08:26:01.897Z,2324.00
2018-06-14T08:27:01.903Z,2404.00
2018-06-14T08:28:01.997Z,2492.00
2018-06-14T08:29:01.930Z,2572.00
2018-06-14T08:30:01.904Z,2612.00
2018-06-14T08:31:01.910Z,2660.00
2018-06-14T08:32:01.911Z,2740.00
2018-06-14T08:33:01.914Z,2828.00
2018-06-14T08:34:01.918Z,2816.00
2018-06-14T08:35:01.922Z,2848.00
2018-06-14T08:36:01.923Z,2912.00
2018-06-14T08:37:01.929Z,3024.00
2018-06-14T08:38:01.969Z,3100.00
2018-06-14T08:39:01.930Z,3228.00
2018-06-14T08:40:01.939Z,3404.00
2018-06-14T08:41:02.028Z,3544.00
2018-06-14T08:42:01.956Z,3588.00
2018-06-14T08:43:01.956Z,3632.00
2018-06-14T08:44:01.949Z,3644.00
2018-06-14T08:45:01.950Z,3788.00
2018-06-14T08:46:02.784Z,3820.00
2018-06-14T08:47:01.954Z,3840.00
2018-06-14T08:48:01.958Z,3840.00
2018-06-14T08:49:01.962Z,3864.00
2018-06-14T08:50:01.962Z,3928.00
2018-06-14T08:51:01.967Z,4032.00
2018-06-14T08:52:01.971Z,4136.00
2018-06-14T08:53:01.972Z,4168.00
2018-06-14T08:54:01.975Z,4200.00
2018-06-14T08:55:01.977Z,4296.00
2018-06-14T08:56:01.982Z,4376.00
2018-06-14T08:57:02.003Z,4508.00
2018-06-14T08:58:01.988Z,4688.00
2018-06-14T08:59:01.990Z,4764.00
2018-06-14T09:00:01.993Z,4800.00
2018-06-14T09:01:01.998Z,4852.00
2018-06-14T09:02:02.781Z,4824.00
2018-06-14T09:03:02.044Z,4876.00
2018-06-14T09:04:02.009Z,4988.00
2018-06-14T09:05:02.012Z,5076.00
2018-06-14T09:06:02.051Z,5184.00
2018-06-14T09:07:02.035Z,5172.00
2018-06-14T09:08:02.020Z,5088.00
2018-06-14T09:09:02.023Z,5104.00
2018-06-14T09:10:02.055Z,5168.00
2018-06-14T09:11:02.028Z,5176.00
2018-06-14T09:12:02.036Z,5204.00
2018-06-14T09:13:02.035Z,5156.00
2018-06-14T09:14:02.039Z,5132.00
2018-06-14T09:15:02.057Z,5204.00
2018-06-14T09:16:02.048Z,5292.00
2018-06-14T09:17:02.053Z,5212.00
2018-06-14T09:18:02.053Z,5016.00
2018-06-14T09:19:02.784Z,4888.00
2018-06-14T09:20:02.060Z,4876.00
2018-06-14T09:21:02.068Z,4728.00
2018-06-14T09:22:02.070Z,4472.00
2018-06-14T09:23:02.081Z,4296.00
2018-06-14T09:24:02.077Z,4280.00
2018-06-14T09:25:02.082Z,4396.00
2018-06-14T09:26:02.084Z,4772.00
2018-06-14T09:27:02.086Z,5016.00
2018-06-14T09:28:02.090Z,4904.00
2018-06-14T09:29:02.096Z,5208.00
2018-06-14T09:30:02.100Z,13308.00
2018-06-14T09:31:02.114Z,15096.00
2018-06-14T09:32:02.144Z,16864.00
2018-06-14T09:33:02.114Z,17248.00
2018-06-14T09:34:02.115Z,17408.00
2018-06-14T09:35:02.121Z,18528.00
2018-06-14T09:36:02.130Z,19936.00
2018-06-14T09:37:02.245Z,20352.00
2018-06-14T09:38:02.137Z,19904.00
2018-06-14T09:39:02.143Z,13360.00
2018-06-14T09:40:02.162Z,9548.00
2018-06-14T09:41:02.157Z,6928.00
2018-06-14T09:42:02.162Z,21280.00
2018-06-14T09:43:02.283Z,6260.00
2018-06-14T09:44:02.178Z,6412.00
2018-06-14T09:45:02.396Z,6820.00
2018-06-14T09:46:02.477Z,6208.00
2018-06-14T09:47:02.326Z,6216.00
2018-06-14T09:48:02.234Z,8992.00
2018-06-14T09:49:02.233Z,6188.00
2018-06-14T09:50:02.219Z,5868.00
2018-06-14T09:51:02.284Z,6204.00
2018-06-14T09:52:02.229Z,7300.00
2018-06-14T09:53:02.402Z,6988.00
2018-06-14T09:54:02.262Z,6836.00
2018-06-14T09:55:02.249Z,5872.00
2018-06-14T09:56:02.255Z,12564.00
2018-06-14T09:57:02.259Z,19936.00
2018-06-14T09:58:02.266Z,9236.00
2018-06-14T09:59:02.277Z,26720.00
2018-06-14T10:00:02.281Z,24480.00
2018-06-14T10:01:02.296Z,14060.00
2018-06-14T10:02:02.293Z,25568.00
2018-06-14T10:03:02.321Z,27488.00
2018-06-14T10:04:02.307Z,29728.00
2018-06-14T10:05:02.315Z,27328.00
2018-06-14T10:06:02.349Z,34912.00
2018-06-14T10:07:02.330Z,15632.00
2018-06-14T10:08:02.335Z,25952.00
2018-06-14T10:09:02.342Z,22336.00
2018-06-14T10:10:02.351Z,10252.00
2018-06-14T10:11:02.358Z,9132.00
2018-06-14T10:12:02.366Z,9320.00
2018-06-14T10:13:02.404Z,8992.00
2018-06-14T10:14:04.888Z,25280.00
2018-06-14T10:15:02.441Z,8172.00
2018-06-14T10:16:02.399Z,9656.00
2018-06-14T10:17:02.406Z,23424.00
2018-06-14T10:18:03.006Z,15028.00
2018-06-14T10:19:02.443Z,26912.00
2018-06-14T10:20:02.432Z,28480.00
2018-06-14T10:21:02.440Z,32672.00
2018-06-14T10:22:02.453Z,16640.00
2018-06-14T10:23:02.458Z,17408.00
2018-06-14T10:24:02.472Z,12080.00
2018-06-14T10:25:02.479Z,9472.00
2018-06-14T10:26:02.490Z,14124.00
2018-06-14T10:27:02.494Z,32608.00
2018-06-14T10:28:02.501Z,32512.00
2018-06-14T10:29:02.529Z,28960.00
2018-06-14T10:30:02.524Z,18400.00
2018-06-14T10:31:02.532Z,33952.00
2018-06-14T10:32:02.538Z,20832.00
2018-06-14T10:33:02.548Z,25824.00
2018-06-14T10:34:02.559Z,30912.00
2018-06-14T10:35:03.316Z,36160.00
2018-06-14T10:36:02.575Z,36352.00
2018-06-14T10:37:02.587Z,38400.00
2018-06-14T10:38:02.594Z,38208.00
2018-06-14T10:39:02.606Z,34400.00
2018-06-14T10:40:02.616Z,33152.00
2018-06-14T10:41:02.679Z,33280.00
2018-06-14T10:42:02.637Z,33152.00
2018-06-14T10:43:02.665Z,32064.00
2018-06-14T10:44:03.328Z,29824.00
2018-06-14T10:45:02.669Z,29696.00
2018-06-14T10:46:02.696Z,35008.00
2018-06-14T10:47:02.854Z,39360.00
2018-06-14T10:48:02.703Z,39264.00
2018-06-14T10:49:02.717Z,37504.00
2018-06-14T10:50:02.728Z,35456.00
2018-06-14T10:51:02.745Z,33600.00
2018-06-14T10:52:02.790Z,34240.00
2018-06-14T10:53:02.760Z,35360.00
2018-06-14T10:54:02.773Z,36256.00
2018-06-14T10:55:02.786Z,38016.00
2018-06-14T10:56:03.412Z,39520.00
2018-06-14T10:57:02.812Z,7192.00
2018-06-14T10:58:03.459Z,42496.00
2018-06-14T10:59:02.833Z,42784.00
2018-06-14T11:00:02.847Z,43040.00
2018-06-14T11:01:03.832Z,43072.00
2018-06-14T11:02:04.055Z,44384.00
2018-06-14T11:03:02.881Z,47712.00
2018-06-14T11:04:02.898Z,46208.00
2018-06-14T11:05:02.906Z,44832.00
2018-06-14T11:06:02.987Z,44320.00
2018-06-14T11:07:02.936Z,45632.00
2018-06-14T11:08:02.947Z,45888.00
2018-06-14T11:09:03.926Z,45056.00
2018-06-14T11:10:03.862Z,42528.00
2018-06-14T11:11:02.984Z,41024.00
2018-06-14T11:12:03.000Z,40864.00
2018-06-14T11:13:03.010Z,42208.00
2018-06-14T11:14:03.025Z,43776.00
2018-06-14T11:15:03.040Z,45088.00
2018-06-14T11:16:03.069Z,45728.00
2018-06-14T11:17:03.094Z,45696.00
2018-06-14T11:18:03.080Z,46048.00
2018-06-14T11:19:03.094Z,46688.00
2018-06-14T11:20:03.849Z,46432.00
2018-06-14T11:21:03.193Z,44160.00
2018-06-14T11:22:03.177Z,43232.00
2018-06-14T11:23:03.161Z,44960.00
2018-06-14T11:24:03.173Z,47648.00
2018-06-14T11:25:03.182Z,50656.00
2018-06-14T11:26:03.195Z,52704.00
2018-06-14T11:27:03.238Z,51520.00
2018-06-14T11:28:03.251Z,49888.00
2018-06-14T11:29:03.253Z,48384.00
2018-06-14T11:30:03.983Z,48704.00
2018-06-14T11:31:03.269Z,48672.00
2018-06-14T11:32:03.284Z,49472.00
2018-06-14T11:33:03.301Z,49312.00
2018-06-14T11:34:03.931Z,46848.00
2018-06-14T11:35:03.335Z,48320.00
2018-06-14T11:36:09.935Z,48224.00
2018-06-14T11:37:03.519Z,47488.00
2018-06-14T11:38:03.932Z,47168.00
2018-06-14T11:39:03.425Z,47712.00
2018-06-14T11:40:03.406Z,49760.00
2018-06-14T11:41:03.420Z,50752.00
2018-06-14T11:42:04.437Z,48736.00
2018-06-14T11:43:03.852Z,49888.00
2018-06-14T11:44:03.469Z,49600.00
2018-06-14T11:45:03.490Z,49920.00
2018-06-14T11:46:03.500Z,49696.00
2018-06-14T11:47:03.515Z,50368.00
2018-06-14T11:48:03.530Z,49600.00
2018-06-14T11:49:03.544Z,48672.00
2018-06-14T11:50:03.584Z,46272.00
2018-06-14T11:51:03.599Z,44416.00
2018-06-14T11:52:04.440Z,35872.00
2018-06-14T11:53:03.610Z,36640.00
2018-06-14T11:54:03.627Z,42432.00
2018-06-14T11:55:03.644Z,45248.00
2018-06-14T11:56:04.374Z,49248.00
2018-06-14T11:57:04.369Z,53440.00
2018-06-14T11:58:03.695Z,54592.00
2018-06-14T11:59:03.709Z,52384.00
2018-06-14T12:00:03.727Z,48096.00
2018-06-14T12:01:03.745Z,48320.00
2018-06-14T12:02:03.764Z,49632.00
2018-06-14T12:03:03.772Z,52992.00
2018-06-14T12:04:03.794Z,56544.00
2018-06-14T12:05:03.810Z,56416.00
2018-06-14T12:06:04.386Z,54432.00
2018-06-14T12:07:03.836Z,52800.00
2018-06-14T12:08:03.852Z,51104.00
2018-06-14T12:09:03.870Z,51840.00
2018-06-14T12:10:03.886Z,52512.00
2018-06-14T12:11:03.915Z,52640.00
2018-06-14T12:12:18.629Z,52384.00
2018-06-14T12:13:03.935Z,51840.00
2018-06-14T12:14:03.950Z,51744.00
2018-06-14T12:15:04.028Z,51360.00
2018-06-14T12:16:04.872Z,50752.00
2018-06-14T12:17:04.953Z,50880.00
2018-06-14T12:18:04.023Z,50528.00
2018-06-14T12:19:04.034Z,51072.00
2018-06-14T12:20:04.047Z,50368.00
2018-06-14T12:21:04.066Z,51616.00
2018-06-14T12:22:04.081Z,52064.00